sensor_id;sensor_type;location;lat;lon;timestamp;temperature;humidity
21672;DHT22;10997;52.242;8.168;2023-07-24T00:01:58;18.10;99.90
21672;DHT22;10997;52.242;8.168;2023-07-24T00:07:00;18.00;99.90
21672;DHT22;10997;52.242;8.168;2023-07-24T00:12:00;18.10;99.90
21672;DHT22;10997;52.242;8.168;2023-07-24T00:17:01;18.10;99.90
21672;DHT22;10997;52.242;8.168;2023-07-24T00:22:02;18.00;99.90
21672;DHT22;10997;52.242;8.168;2023-07-24T00:27:02;18.00;99.90
21672;DHT22;10997;52.242;8.168;2023-07-24T00:32:03;18.00;99.90
21672;DHT22;10997;52.242;8.168;2023-07-24T00:37:04;17.90;99.90
21672;DHT22;10997;52.242;8.168;2023-07-24T00:42:05;17.90;99.90
21672;DHT22;10997;52.242;8.168;2023-07-24T00:47:06;17.90;99.90
21672;DHT22;10997;52.242;8.168;2023-07-24T00:52:07;17.90;99.90
21672;DHT22;10997;52.242;8.168;2023-07-24T00:57:08;17.90;99.90
21672;DHT22;10997;52.242;8.168;2023-07-24T01:02:09;18.00;99.90
21672;DHT22;10997;52.242;8.168;2023-07-24T01:07:10;17.90;99.90
21672;DHT22;10997;52.242;8.168;2023-07-24T01:12:19;17.90;99.90
21672;DHT22;10997;52.242;8.168;2023-07-24T01:17:24;18.00;99.90
21672;DHT22;10997;52.242;8.168;2023-07-24T01:27:29;18.00;99.90
21672;DHT22;10997;52.242;8.168;2023-07-24T01:32:33;18.00;99.90
21672;DHT22;10997;52.242;8.168;2023-07-24T01:37:34;18.00;99.90
21672;DHT22;10997;52.242;8.168;2023-07-24T01:42:36;18.00;99.90
21672;DHT22;10997;52.242;8.168;2023-07-24T01:47:37;18.00;99.90
21672;DHT22;10997;52.242;8.168;2023-07-24T01:52:37;18.10;99.90
21672;DHT22;10997;52.242;8.168;2023-07-24T01:57:38;18.00;99.90
21672;DHT22;10997;52.242;8.168;2023-07-24T02:02:38;18.00;99.90
21672;DHT22;10997;52.242;8.168;2023-07-24T02:07:39;18.00;99.90
21672;DHT22;10997;52.242;8.168;2023-07-24T02:12:39;18.00;99.90
21672;DHT22;10997;52.242;8.168;2023-07-24T02:17:40;18.00;99.90
21672;DHT22;10997;52.242;8.168;2023-07-24T02:22:42;17.90;99.90
21672;DHT22;10997;52.242;8.168;2023-07-24T02:27:43;17.90;99.90
21672;DHT22;10997;52.242;8.168;2023-07-24T02:32:45;17.90;99.90
21672;DHT22;10997;52.242;8.168;2023-07-24T02:37:45;17.90;99.90
21672;DHT22;10997;52.242;8.168;2023-07-24T02:42:46;17.90;99.90
21672;DHT22;10997;52.242;8.168;2023-07-24T02:47:47;17.90;99.90
21672;DHT22;10997;52.242;8.168;2023-07-24T02:52:47;17.80;99.90
21672;DHT22;10997;52.242;8.168;2023-07-24T02:57:49;17.80;99.90
21672;DHT22;10997;52.242;8.168;2023-07-24T03:02:50;17.80;99.90
21672;DHT22;10997;52.242;8.168;2023-07-24T03:07:51;17.80;99.90
21672;DHT22;10997;52.242;8.168;2023-07-24T03:12:52;17.70;99.90
21672;DHT22;10997;52.242;8.168;2023-07-24T03:17:52;17.70;99.90
21672;DHT22;10997;52.242;8.168;2023-07-24T03:22:53;17.60;99.90
21672;DHT22;10997;52.242;8.168;2023-07-24T03:27:55;17.60;99.90
21672;DHT22;10997;52.242;8.168;2023-07-24T03:32:56;17.60;99.90
21672;DHT22;10997;52.242;8.168;2023-07-24T03:37:56;17.50;99.90
21672;DHT22;10997;52.242;8.168;2023-07-24T03:42:57;17.50;99.90
21672;DHT22;10997;52.242;8.168;2023-07-24T03:47:58;17.50;99.90
21672;DHT22;10997;52.242;8.168;2023-07-24T03:52:58;17.50;99.90
21672;DHT22;10997;52.242;8.168;2023-07-24T03:57:59;17.50;99.90
21672;DHT22;10997;52.242;8.168;2023-07-24T04:02:59;17.50;99.90
21672;DHT22;10997;52.242;8.168;2023-07-24T04:08:00;17.50;99.90
21672;DHT22;10997;52.242;8.168;2023-07-24T04:13:01;17.50;99.90
21672;DHT22;10997;52.242;8.168;2023-07-24T04:18:01;17.50;99.90
21672;DHT22;10997;52.242;8.168;2023-07-24T04:23:02;17.60;99.90
21672;DHT22;10997;52.242;8.168;2023-07-24T04:28:02;17.60;99.90
21672;DHT22;10997;52.242;8.168;2023-07-24T04:33:03;17.70;99.90
21672;DHT22;10997;52.242;8.168;2023-07-24T04:38:04;17.70;99.90
21672;DHT22;10997;52.242;8.168;2023-07-24T04:43:04;17.80;99.90
21672;DHT22;10997;52.242;8.168;2023-07-24T04:48:05;17.80;99.90
21672;DHT22;10997;52.242;8.168;2023-07-24T04:53:05;17.80;99.90
21672;DHT22;10997;52.242;8.168;2023-07-24T04:58:06;17.80;99.90
21672;DHT22;10997;52.242;8.168;2023-07-24T05:03:06;17.80;99.90
21672;DHT22;10997;52.242;8.168;2023-07-24T05:08:11;17.70;99.90
21672;DHT22;10997;52.242;8.168;2023-07-24T05:13:11;17.70;99.90
21672;DHT22;10997;52.242;8.168;2023-07-24T05:18:12;17.60;99.90
21672;DHT22;10997;52.242;8.168;2023-07-24T05:23:13;17.60;99.90
21672;DHT22;10997;52.242;8.168;2023-07-24T05:28:13;17.50;99.90
21672;DHT22;10997;52.242;8.168;2023-07-24T05:33:14;17.40;99.90
21672;DHT22;10997;52.242;8.168;2023-07-24T05:38:14;17.40;99.90
21672;DHT22;10997;52.242;8.168;2023-07-24T05:43:15;17.30;99.90
21672;DHT22;10997;52.242;8.168;2023-07-24T05:48:16;17.30;99.90
21672;DHT22;10997;52.242;8.168;2023-07-24T05:53:16;17.30;99.90
21672;DHT22;10997;52.242;8.168;2023-07-24T05:58:17;17.30;99.90
21672;DHT22;10997;52.242;8.168;2023-07-24T06:03:17;17.30;99.90
21672;DHT22;10997;52.242;8.168;2023-07-24T06:08:18;17.40;99.90
21672;DHT22;10997;52.242;8.168;2023-07-24T06:13:19;17.40;99.90
21672;DHT22;10997;52.242;8.168;2023-07-24T06:18:20;17.40;99.90
21672;DHT22;10997;52.242;8.168;2023-07-24T06:23:23;17.40;99.90
21672;DHT22;10997;52.242;8.168;2023-07-24T06:28:24;17.50;99.90
21672;DHT22;10997;52.242;8.168;2023-07-24T06:33:24;17.60;99.90
21672;DHT22;10997;52.242;8.168;2023-07-24T06:38:25;17.80;99.90
21672;DHT22;10997;52.242;8.168;2023-07-24T06:43:25;17.70;99.90
21672;DHT22;10997;52.242;8.168;2023-07-24T06:48:27;17.70;99.90
21672;DHT22;10997;52.242;8.168;2023-07-24T06:53:27;17.90;99.90
21672;DHT22;10997;52.242;8.168;2023-07-24T06:58:28;18.00;99.90
21672;DHT22;10997;52.242;8.168;2023-07-24T07:03:29;18.20;99.90
21672;DHT22;10997;52.242;8.168;2023-07-24T07:08:32;18.30;99.90
21672;DHT22;10997;52.242;8.168;2023-07-24T07:13:33;18.40;99.90
21672;DHT22;10997;52.242;8.168;2023-07-24T07:18:33;18.30;99.90
21672;DHT22;10997;52.242;8.168;2023-07-24T07:23:34;18.30;99.90
21672;DHT22;10997;52.242;8.168;2023-07-24T07:28:34;18.40;99.90
21672;DHT22;10997;52.242;8.168;2023-07-24T07:33:35;18.40;99.90
21672;DHT22;10997;52.242;8.168;2023-07-24T07:38:36;18.70;99.90
21672;DHT22;10997;52.242;8.168;2023-07-24T07:43:37;18.70;99.90
21672;DHT22;10997;52.242;8.168;2023-07-24T07:48:39;18.90;99.90
21672;DHT22;10997;52.242;8.168;2023-07-24T07:53:40;19.00;99.90
21672;DHT22;10997;52.242;8.168;2023-07-24T07:58:41;19.20;99.90
21672;DHT22;10997;52.242;8.168;2023-07-24T08:03:41;19.10;99.90
21672;DHT22;10997;52.242;8.168;2023-07-24T08:08:42;19.30;99.90
21672;DHT22;10997;52.242;8.168;2023-07-24T08:13:42;19.40;99.90
21672;DHT22;10997;52.242;8.168;2023-07-24T08:18:44;19.40;99.90
21672;DHT22;10997;52.242;8.168;2023-07-24T08:23:44;19.50;99.90
21672;DHT22;10997;52.242;8.168;2023-07-24T08:28:45;19.70;99.90
21672;DHT22;10997;52.242;8.168;2023-07-24T08:33:45;20.20;99.90
21672;DHT22;10997;52.242;8.168;2023-07-24T08:38:46;20.10;99.90
21672;DHT22;10997;52.242;8.168;2023-07-24T08:43:48;20.40;99.90
21672;DHT22;10997;52.242;8.168;2023-07-24T08:48:52;20.40;99.90
21672;DHT22;10997;52.242;8.168;2023-07-24T08:53:54;20.00;99.90
21672;DHT22;10997;52.242;8.168;2023-07-24T08:58:56;19.70;99.90
21672;DHT22;10997;52.242;8.168;2023-07-24T09:03:57;19.10;99.90
21672;DHT22;10997;52.242;8.168;2023-07-24T09:08:57;18.90;99.90
21672;DHT22;10997;52.242;8.168;2023-07-24T09:13:58;18.80;99.90
21672;DHT22;10997;52.242;8.168;2023-07-24T09:18:59;18.90;99.90
21672;DHT22;10997;52.242;8.168;2023-07-24T09:24:14;19.20;99.90
21672;DHT22;10997;52.242;8.168;2023-07-24T09:29:16;19.30;99.90
21672;DHT22;10997;52.242;8.168;2023-07-24T09:34:17;19.40;99.90
21672;DHT22;10997;52.242;8.168;2023-07-24T09:39:27;19.90;99.90
21672;DHT22;10997;52.242;8.168;2023-07-24T09:44:28;20.20;99.90
21672;DHT22;10997;52.242;8.168;2023-07-24T09:49:30;20.50;99.90
21672;DHT22;10997;52.242;8.168;2023-07-24T09:54:33;20.40;99.90
21672;DHT22;10997;52.242;8.168;2023-07-24T09:59:41;20.60;99.90
21672;DHT22;10997;52.242;8.168;2023-07-24T10:04:44;20.60;99.90
21672;DHT22;10997;52.242;8.168;2023-07-24T10:09:45;21.00;99.90
21672;DHT22;10997;52.242;8.168;2023-07-24T10:14:46;20.60;99.90
21672;DHT22;10997;52.242;8.168;2023-07-24T10:19:47;20.20;99.90
21672;DHT22;10997;52.242;8.168;2023-07-24T10:24:48;19.90;99.90
21672;DHT22;10997;52.242;8.168;2023-07-24T10:30:01;20.60;99.90
21672;DHT22;10997;52.242;8.168;2023-07-24T10:35:07;21.20;99.90
21672;DHT22;10997;52.242;8.168;2023-07-24T10:40:19;21.20;99.90
21672;DHT22;10997;52.242;8.168;2023-07-24T10:45:20;21.50;99.90
21672;DHT22;10997;52.242;8.168;2023-07-24T10:50:21;21.50;99.90
21672;DHT22;10997;52.242;8.168;2023-07-24T10:55:22;21.30;99.90
21672;DHT22;10997;52.242;8.168;2023-07-24T11:00:26;21.00;99.90
21672;DHT22;10997;52.242;8.168;2023-07-24T11:05:27;21.00;99.90
21672;DHT22;10997;52.242;8.168;2023-07-24T11:10:27;21.60;99.90
21672;DHT22;10997;52.242;8.168;2023-07-24T11:15:30;22.30;99.90
21672;DHT22;10997;52.242;8.168;2023-07-24T11:20:31;22.50;99.90
21672;DHT22;10997;52.242;8.168;2023-07-24T11:25:32;21.90;99.90
21672;DHT22;10997;52.242;8.168;2023-07-24T11:30:33;21.30;99.90
21672;DHT22;10997;52.242;8.168;2023-07-24T11:35:34;21.50;99.90
21672;DHT22;10997;52.242;8.168;2023-07-24T11:40:41;21.30;99.90
21672;DHT22;10997;52.242;8.168;2023-07-24T11:45:43;21.20;99.90
21672;DHT22;10997;52.242;8.168;2023-07-24T11:50:48;21.40;99.90
21672;DHT22;10997;52.242;8.168;2023-07-24T11:55:51;22.00;99.90
21672;DHT22;10997;52.242;8.168;2023-07-24T12:00:52;22.30;99.90
21672;DHT22;10997;52.242;8.168;2023-07-24T12:05:53;22.50;99.90
21672;DHT22;10997;52.242;8.168;2023-07-24T12:10:54;22.50;99.90
21672;DHT22;10997;52.242;8.168;2023-07-24T12:15:55;22.10;99.90
21672;DHT22;10997;52.242;8.168;2023-07-24T12:20:55;21.80;99.90
21672;DHT22;10997;52.242;8.168;2023-07-24T12:25:56;21.80;99.90
21672;DHT22;10997;52.242;8.168;2023-07-24T12:30:56;21.80;99.90
21672;DHT22;10997;52.242;8.168;2023-07-24T12:35:57;21.60;99.90
21672;DHT22;10997;52.242;8.168;2023-07-24T12:40:58;21.50;99.90
21672;DHT22;10997;52.242;8.168;2023-07-24T12:45:58;21.10;99.90
21672;DHT22;10997;52.242;8.168;2023-07-24T12:50:59;20.90;99.90
21672;DHT22;10997;52.242;8.168;2023-07-24T12:56:01;20.70;99.90
21672;DHT22;10997;52.242;8.168;2023-07-24T13:01:02;20.50;99.90
21672;DHT22;10997;52.242;8.168;2023-07-24T13:06:05;20.30;99.90
21672;DHT22;10997;52.242;8.168;2023-07-24T13:11:06;20.20;99.90
21672;DHT22;10997;52.242;8.168;2023-07-24T13:16:06;20.10;99.90
21672;DHT22;10997;52.242;8.168;2023-07-24T13:21:07;20.10;99.90
21672;DHT22;10997;52.242;8.168;2023-07-24T13:26:08;19.90;99.90
21672;DHT22;10997;52.242;8.168;2023-07-24T13:31:20;19.70;99.90
21672;DHT22;10997;52.242;8.168;2023-07-24T13:36:21;19.60;99.90
21672;DHT22;10997;52.242;8.168;2023-07-24T13:41:21;19.40;99.90
21672;DHT22;10997;52.242;8.168;2023-07-24T13:46:22;19.10;99.90
21672;DHT22;10997;52.242;8.168;2023-07-24T13:51:23;19.20;99.90
21672;DHT22;10997;52.242;8.168;2023-07-24T13:56:23;19.20;99.90
21672;DHT22;10997;52.242;8.168;2023-07-24T14:01:24;19.20;99.90
21672;DHT22;10997;52.242;8.168;2023-07-24T14:06:24;19.20;99.90
21672;DHT22;10997;52.242;8.168;2023-07-24T14:11:25;19.70;99.90
21672;DHT22;10997;52.242;8.168;2023-07-24T14:16:27;20.20;99.90
21672;DHT22;10997;52.242;8.168;2023-07-24T14:21:27;20.80;99.90
21672;DHT22;10997;52.242;8.168;2023-07-24T14:26:28;20.80;99.90
21672;DHT22;10997;52.242;8.168;2023-07-24T14:31:28;20.40;99.90
21672;DHT22;10997;52.242;8.168;2023-07-24T14:36:29;20.60;99.90
21672;DHT22;10997;52.242;8.168;2023-07-24T14:41:35;21.00;99.90
21672;DHT22;10997;52.242;8.168;2023-07-24T14:46:35;21.30;99.90
21672;DHT22;10997;52.242;8.168;2023-07-24T14:51:37;21.30;99.90
21672;DHT22;10997;52.242;8.168;2023-07-24T14:56:38;21.80;99.90
21672;DHT22;10997;52.242;8.168;2023-07-24T15:01:38;22.20;99.90
21672;DHT22;10997;52.242;8.168;2023-07-24T15:06:39;22.30;99.90
21672;DHT22;10997;52.242;8.168;2023-07-24T15:11:40;22.60;99.90
21672;DHT22;10997;52.242;8.168;2023-07-24T15:16:40;22.90;99.90
21672;DHT22;10997;52.242;8.168;2023-07-24T15:21:41;22.90;99.90
21672;DHT22;10997;52.242;8.168;2023-07-24T15:26:41;23.00;99.90
21672;DHT22;10997;52.242;8.168;2023-07-24T15:31:42;22.90;99.90
21672;DHT22;10997;52.242;8.168;2023-07-24T15:36:42;23.00;99.90
21672;DHT22;10997;52.242;8.168;2023-07-24T15:41:43;22.70;99.90
21672;DHT22;10997;52.242;8.168;2023-07-24T15:46:43;22.70;99.90
21672;DHT22;10997;52.242;8.168;2023-07-24T15:51:45;22.60;99.90
21672;DHT22;10997;52.242;8.168;2023-07-24T15:56:45;22.80;99.90
21672;DHT22;10997;52.242;8.168;2023-07-24T16:01:46;22.20;99.90
21672;DHT22;10997;52.242;8.168;2023-07-24T16:06:47;22.20;99.90
21672;DHT22;10997;52.242;8.168;2023-07-24T16:11:48;22.40;99.90
21672;DHT22;10997;52.242;8.168;2023-07-24T16:16:48;22.80;99.90
21672;DHT22;10997;52.242;8.168;2023-07-24T16:21:50;23.00;99.90
21672;DHT22;10997;52.242;8.168;2023-07-24T16:26:50;22.70;99.90
21672;DHT22;10997;52.242;8.168;2023-07-24T16:31:51;22.30;99.90
21672;DHT22;10997;52.242;8.168;2023-07-24T16:36:52;21.80;99.90
21672;DHT22;10997;52.242;8.168;2023-07-24T16:41:52;21.70;99.90
21672;DHT22;10997;52.242;8.168;2023-07-24T16:46:53;21.80;99.90
21672;DHT22;10997;52.242;8.168;2023-07-24T16:51:55;21.70;99.90
21672;DHT22;10997;52.242;8.168;2023-07-24T16:56:55;21.50;99.90
21672;DHT22;10997;52.242;8.168;2023-07-24T17:01:56;21.20;99.90
21672;DHT22;10997;52.242;8.168;2023-07-24T17:06:57;20.30;99.90
21672;DHT22;10997;52.242;8.168;2023-07-24T17:11:57;19.30;99.90
21672;DHT22;10997;52.242;8.168;2023-07-24T17:16:58;18.50;99.90
21672;DHT22;10997;52.242;8.168;2023-07-24T17:22:00;18.00;99.90
21672;DHT22;10997;52.242;8.168;2023-07-24T17:27:00;17.50;99.90
21672;DHT22;10997;52.242;8.168;2023-07-24T17:32:01;17.30;99.90
21672;DHT22;10997;52.242;8.168;2023-07-24T17:37:02;17.50;99.90
21672;DHT22;10997;52.242;8.168;2023-07-24T17:42:03;17.60;99.90
21672;DHT22;10997;52.242;8.168;2023-07-24T17:47:03;17.80;99.90
21672;DHT22;10997;52.242;8.168;2023-07-24T17:52:04;17.70;99.90
21672;DHT22;10997;52.242;8.168;2023-07-24T17:57:06;17.70;99.90
21672;DHT22;10997;52.242;8.168;2023-07-24T18:02:07;17.70;99.90
21672;DHT22;10997;52.242;8.168;2023-07-24T18:07:07;18.00;99.90
21672;DHT22;10997;52.242;8.168;2023-07-24T18:12:08;18.30;99.90
21672;DHT22;10997;52.242;8.168;2023-07-24T18:23:05;18.40;99.90
21672;DHT22;10997;52.242;8.168;2023-07-24T18:28:06;18.10;99.90
21672;DHT22;10997;52.242;8.168;2023-07-24T18:33:07;17.90;99.90
21672;DHT22;10997;52.242;8.168;2023-07-24T18:38:07;17.70;99.90
21672;DHT22;10997;52.242;8.168;2023-07-24T18:43:10;17.60;99.90
21672;DHT22;10997;52.242;8.168;2023-07-24T18:48:10;17.60;99.90
21672;DHT22;10997;52.242;8.168;2023-07-24T18:53:11;17.50;99.90
21672;DHT22;10997;52.242;8.168;2023-07-24T18:58:12;17.40;99.90
21672;DHT22;10997;52.242;8.168;2023-07-24T19:03:12;17.40;99.90
21672;DHT22;10997;52.242;8.168;2023-07-24T19:08:13;17.30;99.90
21672;DHT22;10997;52.242;8.168;2023-07-24T19:13:14;17.30;99.90
21672;DHT22;10997;52.242;8.168;2023-07-24T19:18:14;17.10;99.90
21672;DHT22;10997;52.242;8.168;2023-07-24T19:23:15;16.80;99.90
21672;DHT22;10997;52.242;8.168;2023-07-24T19:28:16;16.70;99.90
21672;DHT22;10997;52.242;8.168;2023-07-24T19:33:17;16.50;99.90
21672;DHT22;10997;52.242;8.168;2023-07-24T19:38:17;16.40;99.90
21672;DHT22;10997;52.242;8.168;2023-07-24T19:43:18;16.30;99.90
21672;DHT22;10997;52.242;8.168;2023-07-24T19:48:19;16.30;99.90
21672;DHT22;10997;52.242;8.168;2023-07-24T19:53:21;16.20;99.90
21672;DHT22;10997;52.242;8.168;2023-07-24T19:58:24;16.10;99.90
21672;DHT22;10997;52.242;8.168;2023-07-24T20:03:24;16.00;99.90
21672;DHT22;10997;52.242;8.168;2023-07-24T20:08:26;15.90;99.90
21672;DHT22;10997;52.242;8.168;2023-07-24T20:13:28;15.80;99.90
21672;DHT22;10997;52.242;8.168;2023-07-24T20:18:29;15.70;99.90
21672;DHT22;10997;52.242;8.168;2023-07-24T20:23:29;15.60;99.90
21672;DHT22;10997;52.242;8.168;2023-07-24T20:28:30;15.50;99.90
21672;DHT22;10997;52.242;8.168;2023-07-24T20:33:30;15.40;99.90
21672;DHT22;10997;52.242;8.168;2023-07-24T20:38:31;15.30;99.90
21672;DHT22;10997;52.242;8.168;2023-07-24T20:43:32;15.20;99.90
21672;DHT22;10997;52.242;8.168;2023-07-24T20:48:33;15.10;99.90
21672;DHT22;10997;52.242;8.168;2023-07-24T20:53:33;15.00;99.90
21672;DHT22;10997;52.242;8.168;2023-07-24T20:58:34;14.90;99.90
21672;DHT22;10997;52.242;8.168;2023-07-24T21:03:34;14.90;99.90
21672;DHT22;10997;52.242;8.168;2023-07-24T21:08:35;14.80;99.90
21672;DHT22;10997;52.242;8.168;2023-07-24T21:13:35;14.80;99.90
21672;DHT22;10997;52.242;8.168;2023-07-24T21:18:36;14.80;99.90
21672;DHT22;10997;52.242;8.168;2023-07-24T21:23:37;14.80;99.90
21672;DHT22;10997;52.242;8.168;2023-07-24T21:28:37;14.90;99.90
21672;DHT22;10997;52.242;8.168;2023-07-24T21:33:39;14.90;99.90
21672;DHT22;10997;52.242;8.168;2023-07-24T21:38:40;14.80;99.90
21672;DHT22;10997;52.242;8.168;2023-07-24T21:43:41;14.80;99.90
21672;DHT22;10997;52.242;8.168;2023-07-24T21:48:41;14.80;99.90
21672;DHT22;10997;52.242;8.168;2023-07-24T21:53:42;14.90;99.90
21672;DHT22;10997;52.242;8.168;2023-07-24T21:58:42;14.90;99.90
21672;DHT22;10997;52.242;8.168;2023-07-24T22:03:43;14.90;99.90
21672;DHT22;10997;52.242;8.168;2023-07-24T22:08:44;14.90;99.90
21672;DHT22;10997;52.242;8.168;2023-07-24T22:13:45;14.90;99.90
21672;DHT22;10997;52.242;8.168;2023-07-24T22:18:46;14.80;99.90
21672;DHT22;10997;52.242;8.168;2023-07-24T22:23:46;14.70;99.90
21672;DHT22;10997;52.242;8.168;2023-07-24T22:28:47;14.50;99.90
21672;DHT22;10997;52.242;8.168;2023-07-24T22:33:48;14.50;99.90
21672;DHT22;10997;52.242;8.168;2023-07-24T22:38:48;14.50;99.90
21672;DHT22;10997;52.242;8.168;2023-07-24T22:43:49;14.50;99.90
21672;DHT22;10997;52.242;8.168;2023-07-24T22:48:49;14.50;99.90
21672;DHT22;10997;52.242;8.168;2023-07-24T22:53:50;14.40;99.90
21672;DHT22;10997;52.242;8.168;2023-07-24T23:04:04;14.40;99.90
21672;DHT22;10997;52.242;8.168;2023-07-24T23:09:05;14.40;99.90
21672;DHT22;10997;52.242;8.168;2023-07-24T23:14:05;14.40;99.90
21672;DHT22;10997;52.242;8.168;2023-07-24T23:19:06;14.30;99.90
21672;DHT22;10997;52.242;8.168;2023-07-24T23:24:06;14.30;99.90
21672;DHT22;10997;52.242;8.168;2023-07-24T23:29:07;14.30;99.90
21672;DHT22;10997;52.242;8.168;2023-07-24T23:34:08;14.30;99.90
21672;DHT22;10997;52.242;8.168;2023-07-24T23:39:08;14.30;99.90
21672;DHT22;10997;52.242;8.168;2023-07-24T23:44:09;14.30;99.90
21672;DHT22;10997;52.242;8.168;2023-07-24T23:49:09;14.30;99.90
21672;DHT22;10997;52.242;8.168;2023-07-24T23:54:13;14.30;99.90
21672;DHT22;10997;52.242;8.168;2023-07-24T23:59:13;14.30;99.90
